Time;durP1;ratioP1;P1;durP2;ratioP2;P2;SDS_P1;SDS_P2;PMS_P1;PMS_P2;Temp;Humidity;BMP_temperature;BMP_pressure;BME280_temperature;BME280_humidity;BME280_pressure;Samples;Min_cycle;Max_cycle;Signal;HPM_P1;HPM_P2
2022/01/14 00:02:32;;;;;;;39.33;23.30;;;;;;;2.27;92.98;99848.11;2172213;82;21344;-78
2022/01/14 00:05:33;;;;;;;41.83;22.87;;;;;;;2.25;93.09;99848.42;2172459;81;21339;-78
2022/01/14 00:08:33;;;;;;;43.50;23.33;;;;;;;2.25;92.82;99860.01;2172856;81;21280;-78
2022/01/14 00:11:39;;;;;;;39.77;22.27;;;;;;;2.24;92.80;99856.55;2173032;81;21364;-79
2022/01/14 00:14:41;;;;;;;42.33;23.73;;;;;;;2.23;92.88;99855.16;2173010;82;21405;-79
2022/01/14 00:17:44;;;;;;;42.77;24.20;;;;;;;2.23;92.69;99858.63;2172884;81;20937;-79
2022/01/14 00:20:44;;;;;;;43.53;23.43;;;;;;;2.24;92.53;99842.38;2172837;81;21414;-79
2022/01/14 00:23:49;;;;;;;36.70;20.93;;;;;;;2.22;92.76;99841.80;2172693;80;21012;-80
2022/01/14 00:33:24;;;;;;;43.90;23.93;;;;;;;2.19;92.41;99833.87;2172865;82;21012;-79
2022/01/14 00:36:25;;;;;;;39.43;23.50;;;;;;;2.19;92.52;99835.16;2172943;81;21356;-79
2022/01/14 00:39:25;;;;;;;41.13;23.53;;;;;;;2.18;92.45;99838.14;2173098;81;21328;-79
2022/01/14 00:42:26;;;;;;;41.80;24.90;;;;;;;2.17;92.45;99834.19;2172890;81;20973;-79
2022/01/14 00:45:26;;;;;;;39.60;23.57;;;;;;;2.18;92.52;99833.39;2172967;81;20976;-79
2022/01/14 00:48:27;;;;;;;40.10;23.63;;;;;;;2.17;92.40;99822.20;2172952;82;21000;-79
2022/01/14 00:51:28;;;;;;;49.10;26.30;;;;;;;2.14;92.38;99828.45;2172952;81;21357;-78
2022/01/14 00:54:31;;;;;;;42.70;23.67;;;;;;;2.18;92.20;99830.81;2172508;81;21012;-79
2022/01/14 01:00:53;;;;;;;45.90;25.50;;;;;;;2.19;92.07;99849.34;2172851;82;21398;-79
2022/01/14 01:03:53;;;;;;;41.40;22.40;;;;;;;2.18;92.07;99849.73;2172873;81;20933;-79
2022/01/14 01:06:54;;;;;;;39.97;23.10;;;;;;;2.17;92.08;99850.53;2172927;81;20945;-79
2022/01/14 01:09:54;;;;;;;43.90;24.00;;;;;;;2.18;91.98;99848.45;2172489;82;20968;-79
2022/01/14 01:13:01;;;;;;;37.43;22.73;;;;;;;2.18;91.91;99842.01;2172889;81;20945;-79
2022/01/14 01:15:57;;;;;;;32.13;19.07;;;;;;;2.18;91.81;99835.97;2171988;81;20913;-77
2022/01/14 01:18:57;;;;;;;36.13;21.17;;;;;;;2.17;92.00;99840.22;2172705;81;21328;-78
2022/01/14 01:21:58;;;;;;;33.80;19.43;;;;;;;2.13;92.07;99825.38;2172843;82;21408;-79
2022/01/14 01:25:01;;;;;;;35.57;22.07;;;;;;;2.14;92.13;99823.70;2172850;81;20996;-78
2022/01/14 01:28:01;;;;;;;38.20;21.33;;;;;;;2.12;92.16;99815.88;2172942;82;20972;-78
2022/01/14 01:34:04;;;;;;;37.13;21.40;;;;;;;2.13;92.19;99799.62;2162477;82;21372;-78
2022/01/14 01:37:05;;;;;;;36.10;20.43;;;;;;;2.14;92.13;99775.65;2172373;81;21004;-79
2022/01/14 01:40:05;;;;;;;39.33;22.67;;;;;;;2.14;92.05;99770.89;2172375;81;20937;-78
2022/01/14 01:43:09;;;;;;;43.13;24.10;;;;;;;2.17;91.95;99760.77;2172323;82;21376;-78
2022/01/14 01:46:08;;;;;;;35.30;22.53;;;;;;;2.19;91.84;99757.89;2172614;81;21007;-78
2022/01/14 01:49:09;;;;;;;36.43;22.37;;;;;;;2.20;91.68;99753.23;2172932;81;20921;-79
2022/01/14 01:52:09;;;;;;;34.70;19.40;;;;;;;2.23;91.73;99755.98;2172589;82;21040;-78
2022/01/14 01:55:10;;;;;;;36.60;22.67;;;;;;;2.22;91.87;99743.50;2172454;82;21039;-79
2022/01/14 01:58:10;;;;;;;38.47;23.80;;;;;;;2.22;91.77;99746.48;2172345;81;20933;-79
2022/01/14 02:01:10;;;;;;;37.37;22.93;;;;;;;2.21;91.91;99744.70;2172637;81;21001;-78
2022/01/14 02:04:11;;;;;;;33.90;21.77;;;;;;;2.20;91.89;99747.67;2172608;81;20945;-78
2022/01/14 02:07:12;;;;;;;40.67;23.47;;;;;;;2.21;92.35;99739.15;2172511;82;20932;-79
2022/01/14 02:10:12;;;;;;;42.60;23.50;;;;;;;2.20;92.26;99743.81;2172514;82;21307;-78
2022/01/14 02:13:13;;;;;;;40.10;22.27;;;;;;;2.22;92.37;99749.05;2172719;82;21352;-78
2022/01/14 02:19:26;;;;;;;48.87;24.07;;;;;;;2.19;92.46;99737.28;2162369;82;20968;-78
2022/01/14 02:22:21;;;;;;;40.07;23.93;;;;;;;2.18;92.96;99735.50;2171404;80;21344;-78
2022/01/14 02:25:30;;;;;;;39.37;22.77;;;;;;;2.16;92.76;99731.55;2172443;81;20956;-79
2022/01/14 02:28:31;;;;;;;40.93;22.97;;;;;;;2.17;92.83;99725.60;2171915;82;20983;-79
2022/01/14 02:31:31;;;;;;;39.37;23.63;;;;;;;2.17;93.39;99729.47;2172591;81;20956;-79
2022/01/14 02:34:32;;;;;;;34.90;20.90;;;;;;;2.16;93.43;99721.65;2172894;81;21321;-79
2022/01/14 02:37:35;;;;;;;39.03;22.60;;;;;;;2.14;93.66;99716.41;2172911;82;21411;-79
2022/01/14 02:40:36;;;;;;;41.37;23.60;;;;;;;2.14;93.61;99713.83;2172760;82;21095;-79
2022/01/14 02:43:36;;;;;;;45.47;24.57;;;;;;;2.14;93.92;99715.52;2172923;82;20977;-79
2022/01/14 02:46:43;;;;;;;36.07;21.00;;;;;;;2.13;93.88;99700.86;2172976;82;20949;-80
2022/01/14 02:49:42;;;;;;;39.00;22.90;;;;;;;2.13;94.00;99707.30;2172640;81;20921;-80
2022/01/14 02:55:54;;;;;;;48.23;26.73;;;;;;;2.14;94.21;99691.94;2162021;82;21378;-78
2022/01/14 02:58:54;;;;;;;45.80;23.70;;;;;;;2.14;93.90;99684.61;2172915;82;20960;-79
2022/01/14 03:01:55;;;;;;;47.50;25.87;;;;;;;2.15;94.05;99681.23;2172154;81;21047;-79
2022/01/14 03:04:55;;;;;;;41.37;25.33;;;;;;;2.14;94.43;99682.03;2172571;81;21329;-79
2022/01/14 03:07:56;;;;;;;47.43;28.27;;;;;;;2.16;93.96;99671.02;2172463;81;21304;-79
2022/01/14 03:10:56;;;;;;;47.47;27.97;;;;;;;2.15;94.05;99674.40;2172580;81;21004;-80
2022/01/14 03:13:57;;;;;;;48.73;28.40;;;;;;;2.15;94.24;99676.97;2173038;81;21040;-82
2022/01/14 03:16:59;;;;;;;55.00;28.60;;;;;;;2.14;93.97;99669.16;2173295;81;20973;-80
2022/01/14 03:20:01;;;;;;;51.87;29.30;;;;;;;2.12;94.10;99675.51;2173233;82;20991;-80
2022/01/14 03:23:05;;;;;;;55.80;30.17;;;;;;;2.12;94.13;99666.89;2175887;81;21043;-77
2022/01/14 03:26:05;;;;;;;58.67;32.70;;;;;;;2.13;93.96;99663.52;2189367;81;20947;-80
2022/01/14 03:29:05;;;;;;;59.43;30.20;;;;;;;2.11;94.10;99654.41;2190011;81;20983;-79
2022/01/14 03:32:06;;;;;;;56.93;30.57;;;;;;;2.10;94.23;99646.60;2189516;81;20995;-79
2022/01/14 03:35:06;;;;;;;62.63;33.37;;;;;;;2.07;94.42;99638.70;2189524;81;20936;-79
2022/01/14 03:38:07;;;;;;;52.87;29.00;;;;;;;2.08;94.13;99638.78;2189541;81;20983;-80
2022/01/14 03:41:07;;;;;;;57.93;32.10;;;;;;;2.08;94.73;99646.52;2189439;81;20980;-80
2022/01/14 03:44:08;;;;;;;53.80;30.53;;;;;;;2.09;94.35;99647.40;2189581;81;21375;-80
2022/01/14 03:47:08;;;;;;;56.03;29.27;;;;;;;2.09;94.63;99648.69;2189411;81;21388;-79
2022/01/14 03:50:09;;;;;;;57.30;31.37;;;;;;;2.07;94.40;99646.42;2189270;81;21378;-79
2022/01/14 03:53:11;;;;;;;58.67;31.83;;;;;;;2.08;94.34;99638.78;2189548;81;21051;-79
2022/01/14 03:56:12;;;;;;;62.57;33.50;;;;;;;2.08;94.47;99640.47;2188880;81;21062;-80
2022/01/14 03:59:12;;;;;;;58.17;32.90;;;;;;;2.07;94.37;99628.00;2188783;81;20948;-79
2022/01/14 04:02:12;;;;;;;61.43;33.60;;;;;;;2.08;94.31;99631.45;2189023;81;21401;-79
2022/01/14 04:05:17;;;;;;;63.77;33.53;;;;;;;2.09;94.23;99626.80;2189521;81;20900;-80
2022/01/14 04:08:17;;;;;;;50.83;28.90;;;;;;;2.09;94.37;99630.27;2189725;81;21422;-80
2022/01/14 04:11:18;;;;;;;52.97;30.40;;;;;;;2.11;94.13;99620.05;2189021;81;20956;-78
2022/01/14 04:17:24;;;;;;;50.20;28.27;;;;;;;2.11;93.94;99607.17;2186583;81;21451;-80
2022/01/14 04:20:26;;;;;;;57.97;29.90;;;;;;;2.13;94.06;99605.56;2189751;81;21430;-79
2022/01/14 04:23:27;;;;;;;57.57;31.23;;;;;;;2.13;93.85;99605.17;2189197;81;21043;-79
2022/01/14 04:26:27;;;;;;;54.07;31.90;;;;;;;2.14;93.85;99594.47;2189335;81;21368;-79
2022/01/14 04:29:28;;;;;;;57.73;32.03;;;;;;;2.13;93.87;99594.86;2189376;81;21364;-79
2022/01/14 04:32:29;;;;;;;56.93;31.40;;;;;;;2.13;93.82;99597.44;2188992;81;20991;-79
2022/01/14 04:35:29;;;;;;;54.37;30.60;;;;;;;2.12;93.75;99589.63;2189159;81;20976;-78
2022/01/14 04:38:29;;;;;;;60.97;34.60;;;;;;;2.11;93.75;99589.14;2189030;81;20948;-79
2022/01/14 04:41:30;;;;;;;58.67;31.77;;;;;;;2.11;93.74;99574.98;2189161;81;20976;-78
2022/01/14 04:44:30;;;;;;;47.37;28.67;;;;;;;2.10;93.63;99574.48;2188961;81;20995;-80
2022/01/14 04:47:44;;;;;;;53.23;29.47;;;;;;;2.24;94.17;99587.34;2188968;81;20979;-82
2022/01/14 04:50:36;;;;;;;49.03;28.97;;;;;;;2.23;93.12;99589.44;2187241;81;20948;-80
2022/01/14 04:53:37;;;;;;;62.50;32.00;;;;;;;2.19;92.99;99574.61;2187963;81;21414;-78
2022/01/14 04:56:37;;;;;;;47.33;28.93;;;;;;;2.17;93.10;99571.06;2188800;81;20956;-80
2022/01/14 04:59:38;;;;;;;48.60;28.67;;;;;;;2.15;93.37;99566.63;2188941;81;20987;-78
2022/01/14 05:02:38;;;;;;;47.33;28.53;;;;;;;2.10;93.21;99544.47;2188333;81;20995;-79
2022/01/14 05:05:42;;;;;;;46.87;27.43;;;;;;;2.09;93.23;99535.37;2187943;81;20952;-78
2022/01/14 05:08:41;;;;;;;55.90;31.40;;;;;;;2.07;93.25;99527.56;2188070;81;21007;-78
2022/01/14 05:11:51;;;;;;;53.90;30.90;;;;;;;2.10;93.25;99538.44;2187555;81;21367;-78
2022/01/14 05:14:44;;;;;;;53.63;31.60;;;;;;;2.10;93.01;99526.84;2185975;81;20955;-80
2022/01/14 05:17:44;;;;;;;46.87;28.53;;;;;;;2.08;93.05;99540.03;2187178;81;21442;-81
2022/01/14 05:20:45;;;;;;;50.60;29.57;;;;;;;2.05;93.02;99553.63;2185975;81;21031;-80
2022/01/14 05:23:45;;;;;;;47.37;29.33;;;;;;;2.05;92.90;99560.47;2186317;80;21042;-79
2022/01/14 05:26:46;;;;;;;46.37;28.87;;;;;;;2.02;92.89;99557.72;2187773;81;21035;-79
2022/01/14 05:29:46;;;;;;;49.30;27.90;;;;;;;2.01;92.77;99572.68;2187907;81;21905;-79
2022/01/14 05:32:47;;;;;;;42.30;27.83;;;;;;;2.00;92.69;99550.31;2187550;81;20995;-78
2022/01/14 05:35:48;;;;;;;42.13;25.87;;;;;;;1.98;92.70;99580.23;2188296;81;20940;-84
2022/01/14 05:38:48;;;;;;;47.63;27.40;;;;;;;1.95;92.70;99569.75;2187546;81;21000;-84
2022/01/14 05:41:49;;;;;;;50.73;28.37;;;;;;;1.94;92.62;99567.98;2187569;81;21019;-85
2022/01/14 05:44:51;;;;;;;43.50;27.93;;;;;;;1.94;92.75;99592.44;2188310;81;21007;-85
2022/01/14 05:47:51;;;;;;;50.53;30.13;;;;;;;1.93;92.59;99582.94;2188415;81;20991;-85
2022/01/14 05:50:52;;;;;;;46.43;28.67;;;;;;;1.93;92.60;99580.37;2188426;81;20967;-83
2022/01/14 05:53:52;;;;;;;55.00;32.07;;;;;;;1.92;92.74;99584.63;2188432;81;21047;-87
2022/01/14 05:56:53;;;;;;;46.57;27.87;;;;;;;1.91;92.80;99589.30;2188584;81;20967;-87
2022/01/14 05:59:53;;;;;;;44.03;28.47;;;;;;;1.89;92.86;99581.48;2187839;81;21031;-86
2022/01/14 06:02:54;;;;;;;45.47;28.63;;;;;;;1.90;92.94;99584.55;2188420;81;20980;-85
2022/01/14 06:05:54;;;;;;;49.60;30.23;;;;;;;1.89;93.20;99589.20;2188009;81;20944;-84
2022/01/14 06:08:55;;;;;;;47.90;29.73;;;;;;;1.88;93.29;99589.11;2188823;81;21003;-84
2022/01/14 06:11:55;;;;;;;46.60;29.17;;;;;;;1.86;93.34;99590.31;2189189;81;21003;-83
2022/01/14 06:14:56;;;;;;;41.50;26.67;;;;;;;1.85;93.63;99570.52;2188729;81;20941;-84
2022/01/14 06:17:56;;;;;;;52.90;30.57;;;;;;;1.85;93.86;99568.34;2188700;81;20996;-84
2022/01/14 06:20:57;;;;;;;49.70;29.20;;;;;;;1.83;93.84;99562.22;2187150;81;21011;-85
2022/01/14 06:23:57;;;;;;;61.53;32.73;;;;;;;1.85;93.85;99547.75;2187970;81;21015;-82
2022/01/14 06:26:58;;;;;;;48.50;28.07;;;;;;;1.90;94.95;99538.59;2187596;81;20991;-81
2022/01/14 06:29:58;;;;;;;57.30;32.07;;;;;;;1.94;93.86;99534.52;2188058;81;20928;-82
2022/01/14 06:32:59;;;;;;;47.07;27.97;;;;;;;1.94;93.87;99543.52;2188499;81;20968;-81
2022/01/14 06:35:59;;;;;;;44.43;25.73;;;;;;;1.93;93.90;99537.89;2189241;81;21375;-81
2022/01/14 06:39:00;;;;;;;46.43;26.80;;;;;;;1.93;94.39;99534.02;2188689;81;21501;-80
2022/01/14 06:42:00;;;;;;;52.13;30.00;;;;;;;1.93;93.94;99529.77;2188823;81;21474;-85
2022/01/14 06:45:01;;;;;;;39.30;24.13;;;;;;;1.95;93.99;99525.59;2188193;81;21727;-80
2022/01/14 06:48:01;;;;;;;43.50;26.17;;;;;;;1.98;94.35;99526.16;2187645;81;21316;-80
2022/01/14 06:51:02;;;;;;;40.17;25.40;;;;;;;2.00;94.10;99519.00;2188238;81;21341;-80
2022/01/14 06:54:02;;;;;;;36.20;21.83;;;;;;;2.00;94.25;99522.87;2188073;81;20992;-80
2022/01/14 06:57:03;;;;;;;42.17;24.03;;;;;;;2.00;94.74;99519.41;2188137;81;21658;-80
2022/01/14 07:00:06;;;;;;;41.67;24.07;;;;;;;2.01;94.27;99516.92;2170421;81;20964;-80
2022/01/14 07:03:06;;;;;;;36.20;20.63;;;;;;;2.03;94.54;99515.31;2187831;81;20979;-79
2022/01/14 07:06:07;;;;;;;39.77;24.80;;;;;;;2.05;94.91;99502.12;2187721;81;21015;-80
2022/01/14 07:09:07;;;;;;;34.77;21.77;;;;;;;2.07;94.61;99494.48;2188162;81;20991;-80
2022/01/14 07:12:07;;;;;;;37.93;22.63;;;;;;;2.08;95.66;99499.72;2188709;81;20972;-81
2022/01/14 07:15:10;;;;;;;41.30;24.63;;;;;;;2.09;94.88;99478.31;2188941;81;20952;-78
2022/01/14 07:18:10;;;;;;;30.77;20.17;;;;;;;2.09;94.91;99466.72;2188616;81;21000;-80
2022/01/14 07:21:11;;;;;;;35.40;21.83;;;;;;;2.10;95.12;99468.50;2188200;81;21007;-81
2022/01/14 07:24:13;;;;;;;32.77;20.50;;;;;;;2.11;94.73;99459.09;2183642;80;21091;-83
2022/01/14 07:27:13;;;;;;;37.50;22.03;;;;;;;2.11;94.75;99467.70;2171833;81;20984;-84
2022/01/14 07:30:16;;;;;;;36.63;22.67;;;;;;;2.12;94.62;99461.74;2171238;81;21388;-80
2022/01/14 07:33:17;;;;;;;35.77;21.93;;;;;;;2.15;94.66;99452.01;2171815;82;20993;-82
2022/01/14 07:36:17;;;;;;;32.83;21.20;;;;;;;2.17;94.80;99455.55;2172501;82;20958;-82
2022/01/14 07:39:19;;;;;;;35.33;22.30;;;;;;;2.18;94.64;99462.48;2172076;81;21015;-81
2022/01/14 07:42:20;;;;;;;43.67;24.87;;;;;;;2.19;94.75;99468.11;2172332;81;20999;-81
2022/01/14 07:45:20;;;;;;;38.53;23.50;;;;;;;2.19;94.92;99452.66;2171808;82;20949;-81
2022/01/14 07:51:23;;;;;;;38.03;23.23;;;;;;;2.21;95.34;99430.45;2161973;82;21036;-80
2022/01/14 07:54:23;;;;;;;38.30;22.50;;;;;;;2.23;94.97;99417.25;2172466;81;20988;-81
2022/01/14 07:57:24;;;;;;;36.50;22.33;;;;;;;2.24;95.54;99428.92;2172191;82;21320;-82
2022/01/14 08:00:25;;;;;;;33.80;22.20;;;;;;;2.26;95.65;99437.13;2172039;81;21039;-80
2022/01/14 08:03:25;;;;;;;39.07;24.13;;;;;;;2.26;95.87;99456.05;2171782;81;21019;-81
2022/01/14 08:06:26;;;;;;;35.47;22.50;;;;;;;2.26;96.06;99447.44;2172092;81;20921;-81
2022/01/14 08:09:27;;;;;;;44.73;25.70;;;;;;;2.27;95.65;99425.62;2171861;82;20967;-80
2022/01/14 08:12:27;;;;;;;38.17;24.37;;;;;;;2.30;95.59;99428.77;2171441;82;20991;-81
2022/01/14 08:15:28;;;;;;;44.43;27.77;;;;;;;2.32;97.47;99416.85;2172255;81;20937;-81
2022/01/14 08:18:28;;;;;;;37.37;23.00;;;;;;;2.35;96.05;99414.03;2172232;81;20976;-81
2022/01/14 08:21:32;;;;;;;34.87;22.30;;;;;;;2.40;95.74;99421.61;2172111;81;20988;-82
2022/01/14 08:24:32;;;;;;;43.07;26.03;;;;;;;2.41;95.36;99423.78;2171136;81;21461;-82
2022/01/14 08:27:33;;;;;;;45.50;26.70;;;;;;;2.42;95.28;99398.50;2171718;82;20952;-84
2022/01/14 08:30:33;;;;;;;42.70;25.73;;;;;;;2.43;95.06;99408.00;2171962;82;20989;-80
2022/01/14 08:33:34;;;;;;;38.10;22.90;;;;;;;2.47;94.75;99400.52;2172160;81;21320;-81
2022/01/14 08:36:34;;;;;;;41.43;25.27;;;;;;;2.47;94.65;99416.38;2171659;82;21779;-84
2022/01/14 08:39:35;;;;;;;38.83;24.23;;;;;;;2.49;94.53;99417.34;2172547;81;21004;-80
2022/01/14 08:42:35;;;;;;;38.27;23.07;;;;;;;2.56;94.74;99403.97;2171878;81;20954;-81
2022/01/14 08:45:36;;;;;;;34.60;21.90;;;;;;;2.53;94.46;99419.27;2172114;82;20940;-84
2022/01/14 08:48:36;;;;;;;32.67;21.63;;;;;;;2.51;94.49;99408.88;2171115;82;20988;-81
2022/01/14 08:51:37;;;;;;;34.20;20.17;;;;;;;2.51;94.40;99406.70;2171404;82;20949;-81
2022/01/14 08:54:37;;;;;;;33.70;21.50;;;;;;;2.77;97.38;99409.38;2171495;82;21031;-81
2022/01/14 08:57:38;;;;;;;36.53;22.20;;;;;;;2.78;93.78;99422.75;2171023;82;20936;-82
2022/01/14 09:00:38;;;;;;;36.10;21.93;;;;;;;2.69;93.52;99419.70;2171402;81;21008;-81
2022/01/14 09:03:39;;;;;;;35.57;21.53;;;;;;;2.65;93.86;99415.19;2171683;81;20996;-80
2022/01/14 09:06:39;;;;;;;36.67;22.83;;;;;;;2.62;93.82;99391.84;2171803;81;21089;-81
2022/01/14 09:09:40;;;;;;;30.03;21.23;;;;;;;2.60;94.22;99390.84;2170652;81;21368;-84
2022/01/14 09:12:40;;;;;;;38.03;22.20;;;;;;;2.61;94.24;99405.53;2170532;81;21020;-81
2022/01/14 09:15:41;;;;;;;;;;;;;;;;;;;;;
2022/01/14 09:18:41;;;;;;;40.13;22.40;;;;;;;2.57;94.82;99418.62;2170717;81;20964;-84
2022/01/14 09:21:44;;;;;;;38.27;21.70;;;;;;;2.56;94.87;99404.85;2170669;82;21007;-80
2022/01/14 09:24:44;;;;;;;45.83;24.87;;;;;;;2.55;94.73;99400.91;2170167;81;21001;-80
2022/01/14 09:27:47;;;;;;;34.40;21.90;;;;;;;2.52;95.23;99399.06;2170982;82;20972;-81
2022/01/14 09:30:47;;;;;;;33.10;21.33;;;;;;;2.50;95.75;99397.20;2171362;81;20949;-80
2022/01/14 09:33:48;;;;;;;33.07;20.43;;;;;;;2.49;95.72;99396.32;2171888;81;20981;-81
2022/01/14 09:36:48;;;;;;;30.43;20.73;;;;;;;2.50;95.57;99376.19;2171257;81;20964;-82
2022/01/14 09:39:49;;;;;;;39.07;23.03;;;;;;;2.51;95.53;99378.36;2171739;81;20972;-80
2022/01/14 09:42:49;;;;;;;32.60;19.90;;;;;;;2.51;95.45;99374.09;2172040;81;20965;-80
2022/01/14 09:45:50;;;;;;;30.70;19.67;;;;;;;2.54;95.43;99351.46;2172398;82;20988;-78
2022/01/14 09:48:50;;;;;;;27.53;18.67;;;;;;;2.54;95.54;99363.95;2173063;81;21341;-82
2022/01/14 09:51:51;;;;;;;36.33;22.07;;;;;;;2.58;95.40;99355.08;2172144;81;20976;-85
2022/01/14 09:54:51;;;;;;;29.00;19.27;;;;;;;2.57;95.58;99361.92;2172058;81;21420;-82
2022/01/14 09:57:54;;;;;;;33.67;19.97;;;;;;;2.59;95.45;99333.66;2171680;81;21812;-84
2022/01/14 10:00:54;;;;;;;28.83;18.37;;;;;;;2.61;95.36;99330.78;2171268;82;21087;-84
2022/01/14 10:03:55;;;;;;;27.77;17.70;;;;;;;2.62;95.28;99342.46;2172669;81;21364;-81
2022/01/14 10:06:56;;;;;;;31.90;18.00;;;;;;;2.64;95.22;99327.08;2172665;82;21000;-82
2022/01/14 10:10:03;;;;;;;29.20;17.90;;;;;;;2.68;94.98;99332.86;2172751;82;20981;-83
2022/01/14 10:13:04;;;;;;;27.33;17.83;;;;;;;2.71;94.91;99324.00;2173254;81;20979;-85
2022/01/14 10:16:04;;;;;;;25.27;16.73;;;;;;;2.72;94.90;99321.50;2171967;82;20921;-82
2022/01/14 10:19:05;;;;;;;29.50;17.93;;;;;;;2.72;95.10;99333.50;2170839;82;20925;-83
2022/01/14 10:22:06;;;;;;;26.40;16.83;;;;;;;2.68;95.13;99322.55;2171776;82;21040;-81
2022/01/14 10:25:06;;;;;;;28.80;17.50;;;;;;;2.67;95.14;99328.52;2176255;80;21015;-82
2022/01/14 10:28:07;;;;;;;26.60;17.27;;;;;;;2.68;95.05;99320.86;2188260;81;21342;-81
2022/01/14 10:31:07;;;;;;;34.43;20.20;;;;;;;2.69;94.94;99321.34;2187775;81;21360;-82
2022/01/14 10:34:08;;;;;;;32.73;20.40;;;;;;;2.69;96.15;99297.26;2187741;81;21405;-82
2022/01/14 10:37:08;;;;;;;33.70;18.40;;;;;;;2.68;96.98;99290.34;2187992;81;20999;-81
2022/01/14 10:40:09;;;;;;;31.43;18.83;;;;;;;2.71;95.68;99289.20;2187941;81;21006;-83
2022/01/14 10:43:09;;;;;;;28.70;17.47;;;;;;;2.72;95.50;99301.28;2187999;81;20979;-81
2022/01/14 10:46:10;;;;;;;31.10;17.97;;;;;;;2.73;95.25;99283.31;2188018;81;20938;-81
2022/01/14 10:49:10;;;;;;;27.27;17.97;;;;;;;2.72;95.38;99287.10;2188620;81;20924;-83
2022/01/14 10:52:11;;;;;;;28.47;17.60;;;;;;;2.75;95.23;99280.81;2188765;81;20984;-82
2022/01/14 10:55:12;;;;;;;27.17;17.23;;;;;;;2.79;95.60;99281.44;2188515;81;21027;-84
2022/01/14 10:58:12;;;;;;;33.60;19.50;;;;;;;2.77;95.23;99271.45;2187939;81;21254;-82
2022/01/14 11:01:14;;;;;;;37.50;20.63;;;;;;;2.73;95.69;99273.41;2188123;81;20988;-81
2022/01/14 11:04:15;;;;;;;30.07;18.93;;;;;;;2.74;95.88;99272.59;2187869;81;20940;-79
2022/01/14 11:07:16;;;;;;;33.00;21.10;;;;;;;2.78;95.75;99255.17;2187845;81;20983;-80
2022/01/14 11:10:16;;;;;;;30.73;18.73;;;;;;;2.83;95.40;99248.55;2188083;81;21379;-80
2022/01/14 11:13:17;;;;;;;35.40;20.37;;;;;;;2.83;95.22;99243.39;2187866;81;20968;-80
2022/01/14 11:16:17;;;;;;;37.23;20.27;;;;;;;2.83;95.20;99257.58;2188646;81;20963;-84
2022/01/14 11:19:20;;;;;;;34.10;19.40;;;;;;;2.83;95.29;99240.41;2188329;81;20925;-86
2022/01/14 11:25:39;;;;;;;36.70;21.73;;;;;;;2.82;95.64;99245.09;2187666;80;21525;-82
2022/01/14 11:28:40;;;;;;;46.73;25.77;;;;;;;2.83;95.83;99231.39;2188820;81;20964;-81
2022/01/14 11:31:40;;;;;;;46.10;24.23;;;;;;;2.83;96.01;99242.98;2189125;81;20976;-83
2022/01/14 11:34:42;;;;;;;50.80;27.17;;;;;;;2.80;96.46;99235.11;2188759;81;20960;-83
2022/01/14 11:37:43;;;;;;;43.73;22.33;;;;;;;2.78;96.43;99225.13;2189105;81;21083;-81
2022/01/14 11:40:44;;;;;;;42.17;23.33;;;;;;;2.79;96.50;99236.32;2189122;81;21011;-81
2022/01/14 11:43:45;;;;;;;33.87;19.50;;;;;;;2.77;96.94;99226.34;2189170;81;20978;-81
2022/01/14 11:46:47;;;;;;;37.47;22.37;;;;;;;2.76;96.57;99231.02;2189007;81;20932;-84
2022/01/14 11:49:47;;;;;;;32.53;19.73;;;;;;;2.77;96.63;99240.52;2188776;81;21000;-83
2022/01/14 11:52:48;;;;;;;32.27;20.97;;;;;;;2.77;96.57;99236.25;2188849;81;21216;-82
2022/01/14 11:55:49;;;;;;;42.13;23.27;;;;;;;2.77;96.77;99231.09;2188140;81;21071;-83
2022/01/14 11:58:49;;;;;;;42.30;22.80;;;;;;;2.80;96.88;99240.67;2188545;81;20960;-81
2022/01/14 12:01:49;;;;;;;33.77;22.53;;;;;;;2.81;96.77;99247.19;2188650;81;21015;-80
2022/01/14 12:04:50;;;;;;;30.67;19.17;;;;;;;2.84;96.79;99220.27;2187866;81;20983;-82
2022/01/14 12:07:50;;;;;;;39.63;22.60;;;;;;;2.87;98.95;99227.27;2187443;81;20956;-79
2022/01/14 12:10:51;;;;;;;37.03;22.17;;;;;;;2.85;97.32;99229.77;2187068;81;20959;-80
2022/01/14 12:13:53;;;;;;;38.50;21.37;;;;;;;2.88;97.53;99216.14;2188071;81;21015;-82
2022/01/14 12:17:00;;;;;;;36.30;20.53;;;;;;;2.92;97.39;99225.78;2187342;81;21023;-79
2022/01/14 12:19:56;;;;;;;34.20;20.23;;;;;;;2.93;96.83;99231.42;2186936;81;20979;-82
2022/01/14 12:22:57;;;;;;;29.13;18.20;;;;;;;2.96;97.07;99228.99;2187360;81;20960;-83
2022/01/14 12:25:57;;;;;;;29.03;18.60;;;;;;;3.00;96.80;99219.30;2186598;80;21493;-82
2022/01/14 12:28:57;;;;;;;28.23;18.73;;;;;;;3.03;96.96;99218.16;2187127;81;21353;-80
2022/01/14 12:31:58;;;;;;;35.30;20.17;;;;;;;3.07;96.94;99219.19;2187696;81;21424;-82
2022/01/14 12:34:58;;;;;;;35.70;20.27;;;;;;;3.14;97.05;99217.37;2187570;81;21437;-81
2022/01/14 12:37:59;;;;;;;23.77;16.80;;;;;;;3.18;96.76;99215.00;2186254;81;20988;-80
2022/01/14 12:40:59;;;;;;;25.60;16.13;;;;;;;3.22;96.59;99210.87;2186499;81;20975;-83
2022/01/14 12:44:02;;;;;;;25.30;15.67;;;;;;;3.25;96.44;99223.91;2186969;81;20947;-80
2022/01/14 12:47:05;;;;;;;24.20;15.57;;;;;;;3.29;96.24;99205.59;2187082;81;20959;-80
2022/01/14 12:50:05;;;;;;;27.27;17.53;;;;;;;3.31;96.03;99205.25;2188027;81;21000;-80
2022/01/14 12:53:05;;;;;;;23.53;16.17;;;;;;;3.32;96.01;99207.02;2188130;81;21331;-82
2022/01/14 12:56:06;;;;;;;27.53;18.77;;;;;;;3.33;95.89;99204.91;2188429;81;21384;-80
2022/01/14 12:59:06;;;;;;;22.23;14.93;;;;;;;3.33;95.81;99203.63;2188318;81;21367;-80
2022/01/14 13:02:07;;;;;;;22.90;15.83;;;;;;;3.34;95.66;99195.07;2188281;81;21031;-80
2022/01/14 13:05:07;;;;;;;27.00;17.93;;;;;;;3.36;95.62;99193.44;2187650;81;20988;-81
2022/01/14 13:08:09;;;;;;;26.30;16.40;;;;;;;3.33;95.51;99203.63;2187655;81;21366;-81
2022/01/14 13:11:11;;;;;;;26.17;16.57;;;;;;;3.32;95.53;99201.86;2187158;81;20995;-80
2022/01/14 13:14:16;;;;;;;27.77;17.57;;;;;;;3.32;95.54;99185.09;2187535;81;20924;-80
2022/01/14 13:17:16;;;;;;;23.23;17.23;;;;;;;3.30;97.18;99199.61;2187019;81;20959;-81
2022/01/14 13:20:16;;;;;;;23.13;15.57;;;;;;;3.29;95.78;99194.86;2187521;81;21711;-80
2022/01/14 13:23:18;;;;;;;24.20;15.53;;;;;;;3.30;95.77;99185.42;2187354;81;21036;-80
2022/01/14 13:26:18;;;;;;;25.43;16.83;;;;;;;3.30;95.79;99187.59;2181462;80;21055;-80
2022/01/14 13:29:19;;;;;;;26.43;15.70;;;;;;;3.32;95.56;99170.89;2171946;82;21067;-80
2022/01/14 13:32:19;;;;;;;28.40;16.47;;;;;;;3.30;95.48;99175.10;2172324;81;21000;-80
2022/01/14 13:35:20;;;;;;;21.30;14.77;;;;;;;3.30;95.44;99175.98;2172219;82;20988;-81
2022/01/14 13:38:20;;;;;;;21.40;15.63;;;;;;;3.28;95.35;99175.03;2171759;81;20929;-84
2022/01/14 13:41:21;;;;;;;19.43;14.77;;;;;;;3.29;95.41;99173.34;2171974;81;20972;-79
2022/01/14 13:44:21;;;;;;;29.23;15.80;;;;;;;3.30;95.31;99191.47;2172399;81;21003;-80
2022/01/14 13:47:22;;;;;;;25.23;16.20;;;;;;;3.31;95.30;99190.65;2171266;82;20949;-81
2022/01/14 13:50:22;;;;;;;19.17;13.60;;;;;;;3.32;95.16;99186.37;2171095;82;20964;-81
2022/01/14 13:53:27;;;;;;;16.17;12.83;;;;;;;3.55;96.02;99201.64;2171548;82;20959;-80
2022/01/14 13:56:25;;;;;;;19.87;14.40;;;;;;;3.53;94.19;99193.83;2171148;81;21134;-82
2022/01/14 13:59:28;;;;;;;19.87;14.47;;;;;;;3.47;94.15;99194.84;2171024;81;20937;-82
2022/01/14 14:02:30;;;;;;;23.40;14.87;;;;;;;3.40;94.27;99191.07;2170927;82;20984;-84
2022/01/14 14:05:31;;;;;;;24.37;16.07;;;;;;;3.37;94.33;99204.24;2172073;82;21641;-81
2022/01/14 14:08:43;;;;;;;20.50;14.57;;;;;;;3.34;94.51;99188.62;2171529;81;20988;-81
2022/01/14 14:17:58;;;;;;;24.70;14.93;;;;;;;3.23;95.19;99203.61;2171652;82;20968;-80
2022/01/14 14:21:01;;;;;;;24.43;15.67;;;;;;;3.18;95.25;99203.39;2171477;81;21027;-82
2022/01/14 14:24:02;;;;;;;25.13;14.67;;;;;;;3.16;95.36;99205.42;2171269;81;20953;-80
2022/01/14 14:27:03;;;;;;;21.77;13.20;;;;;;;3.14;95.50;99219.95;2180433;80;21042;-82
2022/01/14 14:30:05;;;;;;;19.93;13.73;;;;;;;3.12;95.39;99209.56;2187424;81;21336;-81
2022/01/14 14:33:05;;;;;;;18.43;12.43;;;;;;;3.14;95.36;99221.23;2188767;81;21008;-81
2022/01/14 14:36:06;;;;;;;17.70;12.10;;;;;;;3.13;95.32;99215.60;2188277;81;20976;-81
2022/01/14 14:39:06;;;;;;;18.63;12.57;;;;;;;3.10;95.26;99222.79;2188728;81;20992;-80